Time;durP1;ratioP1;P1;durP2;ratioP2;P2;SDS_P1;SDS_P2;PMS_P1;PMS_P2;Temp;Humidity;BMP_temperature;BMP_pressure;BME280_temperature;BME280_humidity;BME280_pressure;Samples;Min_cycle;Max_cycle;Signal;HPM_P1;HPM_P2
2023/01/01 00:01:19;;;;;;;6.85;4.00;;;19.30;71.30;;;;;;2297225;54;20954;-87
2023/01/01 00:03:51;;;;;;;5.87;3.72;;;19.30;71.80;;;;;;2531469;54;20918;-87
2023/01/01 00:06:18;;;;;;;6.82;4.10;;;19.20;71.20;;;;;;2531175;54;21075;-85
2023/01/01 00:08:44;;;;;;;6.03;4.00;;;19.20;71.70;;;;;;2297458;55;21792;-87
2023/01/01 00:11:10;;;;;;;7.43;4.03;;;19.20;71.60;;;;;;2296576;55;20952;-86
2023/01/01 00:13:39;;;;;;;7.07;4.85;;;19.20;71.60;;;;;;2297860;55;20956;-86
2023/01/01 00:16:07;;;;;;;8.60;4.82;;;19.20;71.50;;;;;;2297317;55;21023;-86
2023/01/01 00:18:34;;;;;;;7.18;4.35;;;19.10;71.60;;;;;;2531008;54;20965;-86
2023/01/01 00:21:13;;;;;;;8.57;5.10;;;19.10;71.60;;;;;;2530049;54;20912;-87
2023/01/01 00:23:40;;;;;;;8.45;4.93;;;19.10;70.60;;;;;;2297758;55;20924;-88
2023/01/01 00:26:10;;;;;;;7.43;5.28;;;19.10;71.50;;;;;;2530699;54;20976;-86
2023/01/01 00:28:37;;;;;;;7.55;5.05;;;19.00;71.00;;;;;;2297662;55;20920;-87
2023/01/01 00:31:07;;;;;;;7.62;4.80;;;19.00;71.40;;;;;;2530707;54;20975;-87
2023/01/01 00:33:34;;;;;;;7.05;4.60;;;19.00;71.00;;;;;;2531099;54;21286;-87
2023/01/01 00:36:33;;;;;;;7.35;4.70;;;19.00;71.40;;;;;;2297472;54;21777;-87
2023/01/01 00:39:00;;;;;;;6.75;4.05;;;19.00;69.30;;;;;;2531000;54;21019;-86
2023/01/01 00:41:27;;;;;;;5.93;3.70;;;18.90;71.30;;;;;;2530164;54;20932;-86
2023/01/01 00:43:53;;;;;;;6.62;3.87;;;18.90;71.50;;;;;;2297346;55;20960;-87
2023/01/01 00:46:19;;;;;;;6.12;4.18;;;18.90;71.50;;;;;;2530662;54;20924;-87
2023/01/01 00:48:45;;;;;;;6.10;3.95;;;18.80;71.40;;;;;;2297386;55;20928;-87
2023/01/01 00:51:12;;;;;;;6.45;4.10;;;18.90;71.40;;;;;;2296906;55;20972;-87
2023/01/01 00:53:39;;;;;;;6.50;3.90;;;18.90;71.30;;;;;;2296617;55;20967;-86
2023/01/01 00:56:05;;;;;;;6.43;4.00;;;18.70;71.00;;;;;;2529607;54;20983;-87
2023/01/01 00:58:31;;;;;;;5.95;3.95;;;18.70;71.30;;;;;;2529991;54;20964;-87
2023/01/01 01:00:59;;;;;;;6.47;4.20;;;18.70;71.40;;;;;;2295192;54;21023;-84
2023/01/01 01:03:28;;;;;;;8.23;4.95;;;18.70;71.40;;;;;;2528500;54;21000;-84
2023/01/01 01:06:28;;;;;;;7.50;4.80;;;18.60;71.30;;;;;;2296164;54;21442;-86
2023/01/01 01:08:54;;;;;;;7.82;4.18;;;18.60;71.40;;;;;;2529305;54;21165;-83
2023/01/01 01:11:22;;;;;;;7.70;4.35;;;18.60;71.50;;;;;;2294873;55;20995;-84
2023/01/01 01:13:50;;;;;;;5.72;3.35;;;18.60;71.60;;;;;;2315564;54;20983;-84
2023/01/01 01:16:18;;;;;;;5.40;3.72;;;18.60;71.80;;;;;;2560473;53;20919;-84
2023/01/01 01:18:45;;;;;;;6.55;3.30;;;18.60;71.70;;;;;;2560668;53;20974;-86
2023/01/01 01:21:15;;;;;;;5.40;3.17;;;18.60;71.80;;;;;;2559901;54;21050;-86
2023/01/01 01:23:42;;;;;;;5.85;3.10;;;18.60;71.50;;;;;;2319159;54;21554;-82
2023/01/01 01:26:12;;;;;;;4.85;2.87;;;18.60;72.00;;;;;;2318425;54;21019;-86
2023/01/01 01:28:39;;;;;;;4.45;2.62;;;18.60;71.90;;;;;;2318601;54;20930;-86
2023/01/01 01:31:08;;;;;;;6.12;2.65;;;18.60;72.00;;;;;;2318657;54;22190;-84
2023/01/01 01:33:35;;;;;;;5.43;2.20;;;18.60;72.10;;;;;;2558530;53;20924;-85
2023/01/01 01:36:02;;;;;;;3.72;2.30;;;18.60;72.10;;;;;;2558563;53;20951;-85
2023/01/01 01:38:28;;;;;;;4.90;2.58;;;18.60;72.00;;;;;;2318412;54;21062;-86
2023/01/01 01:40:55;;;;;;;5.20;2.90;;;18.60;72.00;;;;;;2559502;53;21726;-84
2023/01/01 01:43:45;;;;;;;6.82;2.08;;;18.60;72.00;;;;;;2320261;54;20923;-86
2023/01/01 01:46:21;;;;;;;4.93;2.05;;;18.60;71.90;;;;;;2557539;53;20995;-86
2023/01/01 01:48:49;;;;;;;3.65;1.85;;;18.60;71.30;;;;;;2319103;54;20935;-86
2023/01/01 01:51:19;;;;;;;5.12;1.70;;;18.60;71.90;;;;;;2557541;53;20959;-82
2023/01/01 01:53:50;;;;;;;3.67;1.70;;;18.60;71.90;;;;;;2558192;53;22412;-83
2023/01/01 01:56:27;;;;;;;3.83;1.77;;;18.50;71.70;;;;;;2557710;53;20931;-87
2023/01/01 01:58:54;;;;;;;4.30;1.90;;;18.50;71.00;;;;;;2292339;54;20949;-84
2023/01/01 02:01:20;;;;;;;2.90;1.50;;;18.50;72.00;;;;;;2524763;54;21026;-85
2023/01/01 02:03:58;;;;;;;3.70;1.70;;;18.50;71.90;;;;;;2525450;54;20956;-83
2023/01/01 02:06:28;;;;;;;3.37;1.60;;;18.50;70.80;;;;;;2292398;53;21011;-87
2023/01/01 02:08:55;;;;;;;3.15;1.50;;;18.50;71.90;;;;;;2519854;54;20990;-86
2023/01/01 02:11:21;;;;;;;3.03;1.33;;;18.50;71.90;;;;;;2524187;54;20935;-84
2023/01/01 02:13:48;;;;;;;4.55;1.40;;;18.50;71.90;;;;;;2523958;54;20939;-84
2023/01/01 02:16:36;;;;;;;3.30;1.42;;;18.40;71.80;;;;;;2524381;54;21533;-85
2023/01/01 02:22:15;;;;;;;3.75;1.60;;;18.40;70.40;;;;;;2525456;54;21450;-84
2023/01/01 02:25:04;;;;;;;3.17;1.25;;;18.40;69.80;;;;;;2525173;54;21344;-87
2023/01/01 02:29:00;;;;;;;2.85;1.25;;;18.40;71.70;;;;;;2525109;54;20927;-86
2023/01/01 02:31:30;;;;;;;3.08;1.40;;;18.40;69.60;;;;;;2524856;54;20990;-81
2023/01/01 02:33:59;;;;;;;2.15;1.00;;;18.40;71.90;;;;;;2525120;54;20938;-84
2023/01/01 02:36:25;;;;;;;2.90;1.30;;;18.40;71.90;;;;;;2525656;54;21446;-82
2023/01/01 02:38:54;;;;;;;4.93;1.50;;;18.30;71.90;;;;;;2553367;53;20943;-82
2023/01/01 02:43:12;;;;;;;3.53;1.25;;;18.30;71.90;;;;;;2320062;54;21337;-85
2023/01/01 02:45:39;;;;;;;2.87;1.23;;;18.30;69.70;;;;;;2560007;53;20907;-84
2023/01/01 02:48:06;;;;;;;3.17;1.30;;;18.30;72.10;;;;;;2560287;53;20943;-82
2023/01/01 02:50:32;;;;;;;2.87;1.37;;;18.30;72.10;;;;;;2559482;53;21947;-82
2023/01/01 02:53:31;;;;;;;3.87;1.30;;;18.30;72.20;;;;;;2560229;53;20962;-82
2023/01/01 03:03:24;;;;;;;3.62;1.33;;;18.30;70.20;;;;;;2293615;53;21000;-82
2023/01/01 03:11:04;;;;;;;2.53;1.30;;;18.30;72.10;;;;;;2294110;54;20929;-85
2023/01/01 03:17:21;;;;;;;3.62;1.00;;;18.30;70.30;;;;;;2555557;54;20935;-86
2023/01/01 03:19:48;;;;;;;2.42;1.15;;;18.30;71.10;;;;;;2320372;55;21497;-86
2023/01/01 03:22:15;;;;;;;2.42;1.20;;;18.30;72.70;;;;;;2559867;54;20934;-87
2023/01/01 03:25:06;;;;;;;3.35;1.40;;;18.30;72.50;;;;;;2320565;55;21478;-86
2023/01/01 03:27:39;;;;;;;3.05;1.23;;;18.30;71.00;;;;;;2560892;54;21820;-86
2023/01/01 03:30:07;;;;;;;5.15;1.48;;;18.30;72.00;;;;;;2560492;54;20919;-84
2023/01/01 03:32:59;;;;;;;2.83;1.40;;;18.20;72.30;;;;;;2320275;55;20930;-85
2023/01/01 03:37:01;;;;;;;2.77;1.20;;;18.30;71.00;;;;;;2315062;54;20912;-86
2023/01/01 03:39:30;;;;;;;2.47;1.00;;;18.20;72.00;;;;;;2558893;53;20928;-85
2023/01/01 03:42:28;;;;;;;3.03;1.20;;;18.20;72.30;;;;;;2320837;54;21788;-84
2023/01/01 03:45:30;;;;;;;2.75;1.27;;;18.20;70.60;;;;;;2560151;53;20946;-84
2023/01/01 03:47:56;;;;;;;4.57;1.37;;;18.20;70.20;;;;;;2320610;54;21874;-85
2023/01/01 03:50:29;;;;;;;3.67;1.30;;;18.20;72.50;;;;;;2559661;53;20951;-84
2023/01/01 03:53:09;;;;;;;2.80;1.40;;;18.20;72.10;;;;;;2559289;53;20967;-85
2023/01/01 03:55:47;;;;;;;2.75;1.40;;;18.20;71.20;;;;;;2318640;54;20990;-86
2023/01/01 03:58:26;;;;;;;3.22;1.50;;;18.20;72.30;;;;;;2558160;53;22045;-84
2023/01/01 04:01:03;;;;;;;3.80;1.17;;;18.20;71.20;;;;;;2559918;53;21061;-85
2023/01/01 04:03:29;;;;;;;4.18;1.45;;;18.20;71.70;;;;;;2546526;53;20963;-84
2023/01/01 04:05:55;;;;;;;3.90;1.42;;;18.20;72.50;;;;;;2320214;54;20943;-85
2023/01/01 04:08:22;;;;;;;3.00;1.35;;;18.20;72.50;;;;;;2559499;53;20927;-85
2023/01/01 04:10:51;;;;;;;3.35;1.33;;;18.20;72.50;;;;;;2559740;53;20919;-84
2023/01/01 04:13:18;;;;;;;4.05;1.50;;;18.30;72.30;;;;;;2560073;53;20979;-85
2023/01/01 04:15:44;;;;;;;3.33;1.40;;;18.30;73.10;;;;;;2321028;54;21429;-84
2023/01/01 04:18:11;;;;;;;3.22;1.58;;;18.30;72.60;;;;;;2560064;53;20979;-84
2023/01/01 04:20:37;;;;;;;4.50;1.33;;;18.30;72.40;;;;;;2560079;53;21551;-87
2023/01/01 04:23:03;;;;;;;3.95;1.65;;;18.30;72.40;;;;;;2560513;53;20943;-85
2023/01/01 04:25:30;;;;;;;3.83;1.50;;;18.30;72.30;;;;;;2528145;53;20972;-84
2023/01/01 04:27:57;;;;;;;4.15;1.80;;;18.30;72.30;;;;;;2560036;53;20998;-84
2023/01/01 04:30:23;;;;;;;4.03;1.50;;;18.40;72.40;;;;;;2559772;53;20943;-83
2023/01/01 04:32:49;;;;;;;2.90;1.25;;;18.40;72.40;;;;;;2320334;54;20911;-86
2023/01/01 04:35:16;;;;;;;4.25;1.60;;;18.40;72.40;;;;;;2560184;53;20976;-83
2023/01/01 04:37:42;;;;;;;4.20;1.42;;;18.40;72.30;;;;;;2320334;54;20928;-84
2023/01/01 04:40:10;;;;;;;4.05;1.75;;;18.40;72.10;;;;;;2559688;53;20973;-84
2023/01/01 04:42:36;;;;;;;3.50;1.40;;;18.50;72.30;;;;;;2559889;53;20911;-84
2023/01/01 04:45:03;;;;;;;3.78;1.37;;;18.50;72.20;;;;;;2320474;54;20923;-85
2023/01/01 04:47:30;;;;;;;3.80;1.55;;;18.50;72.10;;;;;;2559610;53;20908;-86
2023/01/01 04:49:56;;;;;;;4.05;1.40;;;18.50;72.10;;;;;;2559971;53;20974;-84
2023/01/01 04:52:23;;;;;;;5.43;1.37;;;18.50;72.10;;;;;;2559991;53;20963;-84
2023/01/01 04:54:49;;;;;;;3.90;1.50;;;18.60;72.20;;;;;;2559472;53;20975;-84
2023/01/01 04:57:16;;;;;;;4.62;1.50;;;18.60;72.00;;;;;;2320571;54;20918;-86
2023/01/01 04:59:42;;;;;;;3.20;1.30;;;18.60;72.20;;;;;;2320464;54;20975;-86
2023/01/01 05:02:08;;;;;;;2.90;1.27;;;18.60;72.00;;;;;;2320922;54;20931;-86
2023/01/01 05:04:35;;;;;;;3.22;1.15;;;18.60;71.90;;;;;;2559917;53;20932;-85
2023/01/01 05:07:01;;;;;;;2.80;1.25;;;18.60;71.80;;;;;;2320678;54;22174;-86
2023/01/01 05:09:27;;;;;;;3.78;1.30;;;18.60;71.80;;;;;;2559982;53;20908;-84
2023/01/01 05:11:54;;;;;;;3.47;1.30;;;18.60;71.80;;;;;;2320885;54;21024;-85
2023/01/01 05:14:22;;;;;;;4.00;1.60;;;18.60;71.70;;;;;;2321370;54;21038;-84
2023/01/01 05:16:49;;;;;;;2.58;1.30;;;18.70;71.90;;;;;;2560947;53;20983;-86
2023/01/01 05:19:15;;;;;;;3.62;1.20;;;18.70;71.80;;;;;;2321246;54;20962;-84
2023/01/01 05:21:41;;;;;;;4.18;1.30;;;18.70;71.80;;;;;;2561125;53;20911;-86
2023/01/01 05:24:09;;;;;;;3.85;1.37;;;18.70;71.70;;;;;;2321537;54;20951;-86
2023/01/01 05:26:40;;;;;;;3.30;1.37;;;18.70;71.60;;;;;;2561445;53;20920;-86
2023/01/01 05:29:06;;;;;;;2.97;1.15;;;18.70;71.00;;;;;;2296744;55;20947;-86
2023/01/01 05:31:37;;;;;;;4.37;1.50;;;18.70;71.40;;;;;;2551888;53;20959;-84
2023/01/01 05:34:03;;;;;;;3.37;1.20;;;18.70;71.40;;;;;;2529163;54;20904;-86
2023/01/01 05:36:37;;;;;;;3.87;1.20;;;18.70;71.40;;;;;;2560555;53;20912;-85
2023/01/01 05:39:04;;;;;;;2.90;1.10;;;18.70;71.00;;;;;;2320728;54;21863;-86
2023/01/01 05:41:32;;;;;;;4.37;1.30;;;18.60;71.20;;;;;;2560199;53;20904;-85
2023/01/01 05:44:00;;;;;;;4.70;1.33;;;18.70;71.40;;;;;;2320618;54;21023;-85
2023/01/01 05:46:26;;;;;;;3.20;1.15;;;18.70;71.10;;;;;;2320359;54;20935;-85
2023/01/01 05:48:53;;;;;;;3.60;1.30;;;18.70;71.20;;;;;;2560238;53;21007;-85
2023/01/01 05:51:22;;;;;;;3.97;1.20;;;18.70;71.30;;;;;;2320010;54;20935;-86
2023/01/01 05:53:48;;;;;;;3.78;1.30;;;18.70;71.10;;;;;;2559980;53;20994;-83
2023/01/01 05:56:14;;;;;;;2.47;1.00;;;18.60;71.00;;;;;;2560212;53;21867;-84
2023/01/01 05:58:41;;;;;;;3.37;1.40;;;18.60;71.00;;;;;;2560285;53;21718;-86
2023/01/01 06:01:12;;;;;;;3.20;1.50;;;18.60;71.00;;;;;;2293911;55;20992;-84
2023/01/01 06:03:39;;;;;;;3.42;1.30;;;18.60;70.50;;;;;;2560108;53;20987;-86
2023/01/01 06:06:09;;;;;;;3.62;1.27;;;18.60;71.00;;;;;;2554399;54;21367;-85
2023/01/01 06:08:37;;;;;;;3.70;1.20;;;18.60;70.50;;;;;;2528293;54;20954;-83
2023/01/01 06:11:04;;;;;;;3.55;1.70;;;18.60;71.00;;;;;;2293974;55;21425;-85
2023/01/01 06:13:31;;;;;;;3.70;1.40;;;18.60;71.00;;;;;;2294181;55;20908;-84
2023/01/01 06:15:57;;;;;;;5.07;1.48;;;18.50;70.80;;;;;;2293681;55;20976;-84
2023/01/01 06:18:23;;;;;;;3.12;1.40;;;18.50;70.80;;;;;;2528085;54;20928;-81
2023/01/01 06:20:50;;;;;;;2.92;1.33;;;18.50;70.90;;;;;;2527120;54;20972;-84
2023/01/01 06:23:17;;;;;;;3.75;1.30;;;18.50;70.80;;;;;;2527177;54;21715;-84
2023/01/01 06:25:43;;;;;;;3.83;1.33;;;18.50;70.80;;;;;;2527938;54;20976;-86
2023/01/01 06:28:09;;;;;;;4.75;1.23;;;18.50;70.80;;;;;;2526392;54;20948;-83
2023/01/01 06:30:36;;;;;;;6.72;1.33;;;18.50;70.90;;;;;;2527424;54;20932;-84
2023/01/01 06:33:03;;;;;;;2.70;1.20;;;18.40;70.70;;;;;;2527194;54;20961;-84
2023/01/01 06:35:29;;;;;;;4.00;1.30;;;18.40;70.80;;;;;;2527003;54;20964;-84
2023/01/01 06:37:58;;;;;;;3.28;1.27;;;18.40;70.80;;;;;;2527510;54;21012;-84
2023/01/01 06:40:25;;;;;;;2.70;1.30;;;18.40;70.60;;;;;;2293391;55;20971;-86
2023/01/01 06:42:51;;;;;;;2.75;1.10;;;18.40;70.80;;;;;;2527702;54;20979;-84
2023/01/01 06:45:18;;;;;;;2.40;1.00;;;18.30;70.70;;;;;;2527672;54;20940;-84
2023/01/01 06:47:45;;;;;;;3.70;1.35;;;18.30;70.70;;;;;;2526779;54;21820;-85
2023/01/01 06:50:12;;;;;;;2.60;1.10;;;18.30;70.70;;;;;;2527247;54;20968;-85
2023/01/01 06:52:38;;;;;;;4.10;1.33;;;18.30;70.70;;;;;;2292632;55;20980;-85
2023/01/01 06:55:06;;;;;;;2.50;1.20;;;18.30;70.70;;;;;;2526765;54;21007;-85
2023/01/01 06:57:33;;;;;;;3.70;1.20;;;18.30;70.80;;;;;;2526946;54;21007;-84
2023/01/01 07:00:00;;;;;;;3.00;1.27;;;18.30;70.90;;;;;;2526473;54;20988;-83
2023/01/01 07:02:26;;;;;;;2.65;1.27;;;18.30;70.80;;;;;;2525772;54;20928;-85
2023/01/01 07:04:53;;;;;;;4.15;1.15;;;18.20;70.70;;;;;;2526842;54;20928;-85
2023/01/01 07:07:19;;;;;;;3.10;1.15;;;18.20;70.70;;;;;;2526731;54;21048;-84
2023/01/01 07:09:45;;;;;;;3.47;1.30;;;18.20;70.70;;;;;;2292952;55;21761;-85
2023/01/01 07:12:11;;;;;;;5.53;1.27;;;18.20;70.70;;;;;;2527115;54;20988;-84
2023/01/01 07:14:38;;;;;;;3.45;1.10;;;18.20;70.70;;;;;;2527269;54;20972;-84
2023/01/01 07:17:04;;;;;;;2.65;1.37;;;18.20;70.70;;;;;;2527383;54;20945;-84
2023/01/01 07:19:30;;;;;;;3.80;1.10;;;18.20;70.70;;;;;;2293690;55;20944;-84
2023/01/01 07:21:57;;;;;;;2.85;1.20;;;18.20;70.70;;;;;;2527544;54;20916;-84
2023/01/01 07:24:23;;;;;;;3.90;1.45;;;18.20;70.80;;;;;;2527690;54;20983;-84
2023/01/01 07:26:49;;;;;;;3.90;1.23;;;18.20;70.80;;;;;;2293572;55;20936;-84
2023/01/01 07:29:16;;;;;;;3.45;1.37;;;18.20;70.80;;;;;;2293180;55;20967;-84
2023/01/01 07:31:42;;;;;;;4.20;1.98;;;18.20;70.80;;;;;;2526849;54;20917;-85
2023/01/01 07:34:12;;;;;;;2.80;1.12;;;18.20;70.80;;;;;;2526958;54;20940;-84
2023/01/01 07:36:40;;;;;;;3.87;1.05;;;18.20;70.60;;;;;;2553720;54;20942;-84
2023/01/01 07:39:06;;;;;;;4.37;1.50;;;18.20;71.10;;;;;;2559101;54;20943;-84
2023/01/01 07:41:32;;;;;;;3.22;1.20;;;18.20;71.10;;;;;;2559520;54;21353;-83
2023/01/01 07:44:00;;;;;;;3.33;1.20;;;18.20;71.10;;;;;;2560211;54;20982;-85
2023/01/01 07:46:26;;;;;;;3.80;1.12;;;18.20;71.00;;;;;;2560493;54;20954;-84
2023/01/01 07:48:54;;;;;;;3.75;1.33;;;18.20;71.00;;;;;;2560023;54;20930;-83
2023/01/01 07:51:21;;;;;;;3.75;1.27;;;18.30;71.20;;;;;;2559854;54;20966;-85
2023/01/01 07:53:47;;;;;;;2.95;1.15;;;18.30;71.90;;;;;;2559881;54;20957;-85
2023/01/01 07:56:14;;;;;;;2.85;1.10;;;18.30;71.20;;;;;;2560177;54;20951;-84
2023/01/01 07:58:40;;;;;;;3.10;1.20;;;18.30;71.10;;;;;;2559989;54;20926;-84
2023/01/01 08:01:11;;;;;;;3.37;1.17;;;18.30;71.10;;;;;;2559198;54;21002;-83
2023/01/01 08:03:37;;;;;;;2.87;1.10;;;18.30;70.50;;;;;;2560043;54;20959;-85
2023/01/01 08:06:12;;;;;;;6.40;1.87;;;18.30;70.90;;;;;;2559792;54;20931;-85
2023/01/01 08:08:38;;;;;;;4.37;1.50;;;18.30;70.00;;;;;;2320088;55;21025;-84
2023/01/01 08:11:05;;;;;;;2.67;1.00;;;18.30;70.80;;;;;;2558971;54;21012;-84
2023/01/01 08:13:31;;;;;;;2.72;1.25;;;18.30;70.80;;;;;;2557026;54;20981;-83
2023/01/01 08:15:58;;;;;;;2.67;1.30;;;18.30;70.80;;;;;;2300895;55;21005;-86
2023/01/01 08:18:24;;;;;;;4.55;1.12;;;18.40;71.00;;;;;;2321456;55;21315;-85
2023/01/01 08:20:52;;;;;;;4.57;1.12;;;18.30;71.00;;;;;;2562041;54;20938;-85
2023/01/01 08:23:18;;;;;;;3.00;1.10;;;18.30;71.00;;;;;;2562287;54;20927;-84
2023/01/01 08:25:44;;;;;;;3.67;1.55;;;18.30;70.80;;;;;;2560148;54;20954;-86
2023/01/01 08:28:10;;;;;;;2.72;1.20;;;18.30;70.80;;;;;;2561260;54;20953;-83
2023/01/01 08:30:37;;;;;;;2.50;1.20;;;18.30;70.80;;;;;;2559660;54;20972;-83
2023/01/01 08:33:03;;;;;;;2.60;1.10;;;18.30;70.80;;;;;;2558672;54;21458;-84
2023/01/01 08:35:30;;;;;;;3.85;1.35;;;18.30;70.90;;;;;;2320966;55;21057;-86
2023/01/01 08:37:56;;;;;;;3.67;1.48;;;18.30;70.90;;;;;;2560415;54;21057;-84
2023/01/01 08:40:22;;;;;;;3.53;1.30;;;18.30;70.90;;;;;;2320081;55;21843;-83
2023/01/01 08:42:48;;;;;;;8.50;2.40;;;18.30;70.90;;;;;;2560211;54;20942;-85
2023/01/01 08:45:15;;;;;;;4.37;1.50;;;18.30;71.00;;;;;;2559814;54;21383;-84
2023/01/01 08:47:42;;;;;;;3.72;1.30;;;18.30;71.00;;;;;;2560070;54;20930;-83
2023/01/01 08:50:09;;;;;;;3.08;1.27;;;18.30;70.90;;;;;;2320672;55;20938;-84
2023/01/01 08:52:35;;;;;;;4.72;1.40;;;18.20;71.00;;;;;;2560242;54;20962;-85
2023/01/01 08:55:01;;;;;;;3.45;1.23;;;18.30;71.10;;;;;;2319707;55;20986;-84
2023/01/01 08:57:31;;;;;;;2.28;1.08;;;18.30;71.00;;;;;;2560406;54;21795;-86
2023/01/01 08:59:58;;;;;;;3.80;1.45;;;18.30;70.80;;;;;;2559989;54;20957;-83
2023/01/01 09:02:24;;;;;;;5.37;1.37;;;18.30;71.20;;;;;;2320959;55;20957;-86
2023/01/01 09:04:50;;;;;;;3.67;1.10;;;18.40;71.90;;;;;;2320697;55;20973;-85
2023/01/01 09:07:17;;;;;;;4.18;1.30;;;18.40;71.30;;;;;;2560423;54;21006;-85
2023/01/01 09:09:43;;;;;;;2.97;1.25;;;18.50;71.40;;;;;;2560580;54;20918;-86
2023/01/01 09:12:10;;;;;;;3.85;1.30;;;18.40;71.30;;;;;;2559448;53;20955;-84
2023/01/01 09:14:37;;;;;;;2.80;1.30;;;18.50;71.50;;;;;;2560378;53;20974;-86
2023/01/01 09:17:03;;;;;;;4.60;1.37;;;18.40;71.30;;;;;;2320683;54;20991;-85
2023/01/01 09:19:30;;;;;;;3.72;1.15;;;18.50;71.40;;;;;;2559265;53;20916;-84
2023/01/01 09:21:56;;;;;;;3.00;1.27;;;18.50;71.40;;;;;;2320127;54;21748;-84
2023/01/01 09:24:23;;;;;;;3.10;1.27;;;18.50;71.40;;;;;;2560077;53;20927;-85
2023/01/01 09:26:51;;;;;;;3.95;1.42;;;18.60;71.50;;;;;;2559982;53;21018;-86
2023/01/01 09:29:20;;;;;;;3.72;1.40;;;18.60;71.20;;;;;;2560574;53;21089;-84
2023/01/01 09:31:49;;;;;;;3.00;1.15;;;18.70;71.70;;;;;;2560168;53;20923;-85
2023/01/01 09:34:16;;;;;;;2.92;1.30;;;18.70;71.50;;;;;;2560343;53;20931;-86
2023/01/01 09:36:43;;;;;;;3.90;1.40;;;18.70;71.80;;;;;;2561090;53;21035;-86
2023/01/01 09:39:14;;;;;;;4.03;1.40;;;18.90;71.90;;;;;;2560270;53;20987;-86
2023/01/01 09:42:55;;;;;;;3.65;1.30;;;18.80;71.30;;;;;;2560956;53;21007;-85
2023/01/01 09:45:29;;;;;;;2.60;1.20;;;18.90;70.10;;;;;;2321849;54;20947;-84
2023/01/01 09:48:10;;;;;;;3.35;1.40;;;18.90;71.00;;;;;;2320630;54;20983;-85
2023/01/01 09:50:38;;;;;;;2.75;1.15;;;19.00;71.10;;;;;;2320471;54;20975;-84
2023/01/01 09:53:58;;;;;;;4.28;2.03;;;19.00;71.80;;;;;;2321727;54;21731;-84
2023/01/01 09:56:36;;;;;;;3.40;1.40;;;19.10;69.80;;;;;;2535478;53;20963;-85
2023/01/01 09:59:02;;;;;;;3.70;1.45;;;19.10;70.60;;;;;;2538259;53;20983;-86
2023/01/01 10:04:24;;;;;;;3.28;1.10;;;19.20;72.00;;;;;;2310495;55;20965;-82
2023/01/01 10:13:05;;;;;;;2.83;1.10;;;19.20;69.80;;;;;;2320384;54;20940;-85
2023/01/01 10:15:33;;;;;;;2.17;0.85;;;19.40;70.20;;;;;;2559573;53;20935;-84
2023/01/01 10:18:02;;;;;;;2.22;0.98;;;19.50;73.10;;;;;;2560202;53;20979;-86
2023/01/01 10:20:35;;;;;;;5.25;2.10;;;19.50;73.00;;;;;;2320226;54;20915;-85
2023/01/01 10:24:24;;;;;;;3.58;1.20;;;19.60;72.20;;;;;;2559666;53;20971;-85
2023/01/01 10:26:51;;;;;;;2.97;1.10;;;19.60;72.80;;;;;;2560322;53;20979;-85
2023/01/01 10:29:23;;;;;;;3.20;1.20;;;19.70;73.00;;;;;;2560488;53;20907;-84
2023/01/01 10:31:49;;;;;;;3.45;1.17;;;19.70;72.00;;;;;;2559932;53;20955;-85
2023/01/01 10:34:24;;;;;;;4.20;1.23;;;19.80;72.90;;;;;;2559716;53;21416;-84
2023/01/01 10:36:52;;;;;;;4.72;1.20;;;19.80;71.90;;;;;;2559466;53;20915;-85
2023/01/01 10:39:18;;;;;;;3.40;1.33;;;19.90;73.00;;;;;;2559006;53;20943;-85
2023/01/01 10:41:45;;;;;;;3.25;1.15;;;19.90;72.80;;;;;;2559399;53;20979;-86
2023/01/01 10:44:11;;;;;;;3.92;1.40;;;19.90;72.50;;;;;;2319348;54;21507;-86
2023/01/01 10:46:58;;;;;;;6.93;1.58;;;20.00;72.50;;;;;;2560213;53;21471;-84
2023/01/01 10:49:25;;;;;;;5.37;2.00;;;20.00;72.00;;;;;;2559811;53;21003;-85
2023/01/01 10:51:53;;;;;;;6.25;1.50;;;20.10;72.40;;;;;;2559165;53;21468;-84
2023/01/01 10:54:35;;;;;;;4.00;1.33;;;20.20;72.50;;;;;;2559547;53;20971;-84
2023/01/01 10:57:17;;;;;;;3.20;1.48;;;20.20;70.20;;;;;;2559354;53;21892;-83
2023/01/01 10:59:43;;;;;;;5.70;1.70;;;20.20;70.60;;;;;;2319886;54;20927;-83
2023/01/01 11:02:25;;;;;;;4.57;1.30;;;20.30;72.70;;;;;;2559441;53;20926;-86
2023/01/01 11:05:08;;;;;;;3.28;1.42;;;20.40;70.80;;;;;;2559731;53;21476;-88
2023/01/01 11:07:38;;;;;;;4.47;1.48;;;20.50;73.00;;;;;;2560400;53;20955;-84
2023/01/01 11:10:05;;;;;;;4.28;1.60;;;20.60;73.40;;;;;;2532433;54;20955;-86
2023/01/01 11:12:38;;;;;;;2.55;1.17;;;20.60;73.40;;;;;;2556062;53;21978;-84
2023/01/01 11:15:46;;;;;;;4.50;1.83;;;20.70;72.10;;;;;;2559349;53;20915;-86
2023/01/01 11:18:34;;;;;;;4.15;1.20;;;20.90;71.10;;;;;;2559741;53;22221;-86
2023/01/01 11:21:01;;;;;;;3.85;1.10;;;20.90;72.30;;;;;;2559422;53;20995;-85
2023/01/01 11:23:34;;;;;;;3.75;1.12;;;21.00;73.10;;;;;;2320477;54;21739;-82
2023/01/01 11:26:23;;;;;;;3.03;1.23;;;21.20;71.90;;;;;;2320161;54;21857;-83
2023/01/01 11:29:04;;;;;;;4.15;1.17;;;21.30;70.10;;;;;;2319706;54;21021;-84
2023/01/01 11:31:35;;;;;;;3.90;1.40;;;21.30;70.40;;;;;;2557965;53;21315;-83
2023/01/01 11:34:03;;;;;;;2.85;1.50;;;21.40;71.90;;;;;;2557221;53;21879;-87
2023/01/01 11:36:31;;;;;;;3.67;1.42;;;21.40;72.60;;;;;;2557742;53;21038;-84
2023/01/01 11:39:25;;;;;;;3.87;1.10;;;21.50;72.70;;;;;;2318467;54;21019;-85
2023/01/01 11:41:53;;;;;;;2.62;1.00;;;21.60;70.10;;;;;;2318410;54;21027;-84
2023/01/01 11:44:35;;;;;;;5.03;1.35;;;21.60;72.50;;;;;;2558156;53;20958;-84
2023/01/01 11:47:01;;;;;;;8.67;1.30;;;21.70;70.10;;;;;;2297132;54;1353317;-84
2023/01/01 11:49:28;;;;;;;4.68;1.20;;;21.70;72.50;;;;;;2557653;53;20955;-84
2023/01/01 11:51:54;;;;;;;3.35;1.10;;;21.80;72.20;;;;;;2557718;53;20962;-84
2023/01/01 11:54:38;;;;;;;2.70;1.00;;;21.80;71.90;;;;;;2317850;54;20963;-84
2023/01/01 11:57:17;;;;;;;3.80;1.25;;;21.90;68.90;;;;;;2557040;53;20946;-83
2023/01/01 11:59:46;;;;;;;1.98;0.88;;;21.90;69.50;;;;;;2298034;54;21018;-83
2023/01/01 12:02:14;;;;;;;2.72;0.90;;;21.90;71.00;;;;;;2556334;53;20931;-84
2023/01/01 12:04:45;;;;;;;5.93;1.40;;;22.00;70.60;;;;;;2558115;53;20956;-85
2023/01/01 12:07:30;;;;;;;5.32;1.55;;;22.00;70.50;;;;;;2557486;53;20939;-84
2023/01/01 12:10:55;;;;;;;4.00;1.12;;;22.00;70.20;;;;;;2318072;54;21034;-85
2023/01/01 12:13:24;;;;;;;2.78;1.00;;;22.00;67.60;;;;;;2558014;53;20971;-85
2023/01/01 12:16:19;;;;;;;6.07;1.15;;;22.00;70.30;;;;;;2557269;53;20970;-85
2023/01/01 12:18:56;;;;;;;3.75;1.00;;;22.00;67.50;;;;;;2558249;53;20963;-83
2023/01/01 12:21:27;;;;;;;3.33;1.00;;;22.00;68.60;;;;;;2317599;54;20931;-86
2023/01/01 12:23:54;;;;;;;4.53;1.15;;;22.00;69.40;;;;;;2318320;54;20983;-85
2023/01/01 12:26:25;;;;;;;3.05;1.00;;;22.00;69.90;;;;;;2558263;53;21078;-83
2023/01/01 12:29:32;;;;;;;4.72;1.20;;;22.00;69.60;;;;;;2558231;53;20990;-82
2023/01/01 12:32:30;;;;;;;4.97;1.08;;;22.00;66.90;;;;;;2317665;54;20962;-84
2023/01/01 12:35:08;;;;;;;2.30;0.90;;;22.10;67.10;;;;;;2318344;54;21281;-85
2023/01/01 12:41:00;;;;;;;2.20;0.80;;;22.10;69.70;;;;;;2557879;53;20954;-82
2023/01/01 12:43:38;;;;;;;4.35;1.00;;;22.10;67.30;;;;;;2318459;54;22200;-85
2023/01/01 12:51:28;;;;;;;2.67;0.90;;;22.10;68.60;;;;;;2317909;54;20985;-84
2023/01/01 12:55:39;;;;;;;4.82;1.00;;;22.20;67.30;;;;;;2316429;54;21030;-84
2023/01/01 12:59:31;;;;;;;4.85;0.80;;;22.20;67.50;;;;;;2556083;53;21011;-82
2023/01/01 13:01:59;;;;;;;2.72;1.02;;;22.20;67.70;;;;;;2555910;53;20939;-83
2023/01/01 13:04:26;;;;;;;2.97;0.90;;;22.20;70.60;;;;;;2556481;53;21561;-83
2023/01/01 13:06:56;;;;;;;6.37;1.10;;;22.20;70.10;;;;;;2555601;53;22253;-83
2023/01/01 13:09:26;;;;;;;4.25;0.90;;;22.20;70.10;;;;;;2554749;53;20983;-83
2023/01/01 13:12:09;;;;;;;4.70;1.00;;;22.20;70.10;;;;;;2315410;54;21044;-83
2023/01/01 13:14:42;;;;;;;2.67;0.90;;;22.30;68.90;;;;;;2555672;53;20959;-84
2023/01/01 13:19:01;;;;;;;2.58;1.12;;;22.30;68.60;;;;;;2316690;54;21082;-86
2023/01/01 13:21:28;;;;;;;2.90;1.00;;;22.40;67.30;;;;;;2557116;53;21074;-84
2023/01/01 13:24:01;;;;;;;3.85;1.15;;;22.40;70.70;;;;;;2554805;53;20987;-83
2023/01/01 13:26:31;;;;;;;2.22;1.00;;;22.40;69.80;;;;;;2555107;53;22303;-83
2023/01/01 13:29:43;;;;;;;4.80;1.10;;;22.40;69.80;;;;;;2554254;53;21038;-83
2023/01/01 13:32:10;;;;;;;2.30;0.90;;;22.50;66.60;;;;;;2553671;53;21034;-84
2023/01/01 13:35:58;;;;;;;3.30;0.80;;;22.50;70.20;;;;;;2314653;54;21296;-84
2023/01/01 13:38:44;;;;;;;3.40;0.85;;;22.50;69.90;;;;;;2554877;53;21931;-82
2023/01/01 13:41:30;;;;;;;2.42;0.88;;;22.60;67.10;;;;;;2554746;53;22259;-84
2023/01/01 13:44:38;;;;;;;3.35;0.85;;;22.60;66.90;;;;;;2555383;53;21062;-83
2023/01/01 13:47:38;;;;;;;4.97;0.90;;;22.60;66.70;;;;;;2554918;53;21027;-83
2023/01/01 13:50:13;;;;;;;3.80;1.08;;;22.60;68.20;;;;;;2315964;54;20999;-83
2023/01/01 13:53:04;;;;;;;3.80;0.90;;;22.60;69.40;;;;;;2316545;54;21124;-83
2023/01/01 13:55:53;;;;;;;3.33;0.85;;;22.60;68.20;;;;;;2555724;53;21226;-84
2023/01/01 13:59:23;;;;;;;2.50;0.80;;;22.70;67.20;;;;;;2269010;55;21931;-84